sensor_id;sensor_type;location;lat;lon;timestamp;P1;durP1;ratioP1;P2;durP2;ratioP2
51925;SDS011;37952;51.938;15.480;2023-05-07T00:01:13;5.30;;;4.90;;
51925;SDS011;37952;51.938;15.480;2023-05-07T00:04:22;4.20;;;4.00;;
51925;SDS011;37952;51.938;15.480;2023-05-07T00:07:25;4.80;;;4.50;;
51925;SDS011;37952;51.938;15.480;2023-05-07T00:10:28;5.10;;;4.60;;
51925;SDS011;37952;51.938;15.480;2023-05-07T00:13:31;5.60;;;5.10;;
51925;SDS011;37952;51.938;15.480;2023-05-07T00:16:38;4.30;;;4.10;;
51925;SDS011;37952;51.938;15.480;2023-05-07T00:19:42;4.60;;;4.30;;
51925;SDS011;37952;51.938;15.480;2023-05-07T00:22:45;4.70;;;4.30;;
51925;SDS011;37952;51.938;15.480;2023-05-07T00:25:48;5.70;;;5.20;;
51925;SDS011;37952;51.938;15.480;2023-05-07T00:28:52;5.50;;;4.60;;
51925;SDS011;37952;51.938;15.480;2023-05-07T00:31:55;4.60;;;4.30;;
51925;SDS011;37952;51.938;15.480;2023-05-07T00:34:57;5.80;;;4.80;;
51925;SDS011;37952;51.938;15.480;2023-05-07T00:38:00;5.40;;;4.80;;
51925;SDS011;37952;51.938;15.480;2023-05-07T00:41:03;5.00;;;4.80;;
51925;SDS011;37952;51.938;15.480;2023-05-07T00:44:05;4.40;;;4.20;;
51925;SDS011;37952;51.938;15.480;2023-05-07T00:47:08;5.40;;;5.00;;
51925;SDS011;37952;51.938;15.480;2023-05-07T00:50:12;6.10;;;5.60;;
51925;SDS011;37952;51.938;15.480;2023-05-07T00:53:15;4.60;;;4.20;;
51925;SDS011;37952;51.938;15.480;2023-05-07T00:56:18;5.00;;;4.60;;
51925;SDS011;37952;51.938;15.480;2023-05-07T00:59:23;6.30;;;5.20;;
51925;SDS011;37952;51.938;15.480;2023-05-07T01:02:26;5.90;;;5.30;;
51925;SDS011;37952;51.938;15.480;2023-05-07T01:05:29;4.70;;;4.40;;
51925;SDS011;37952;51.938;15.480;2023-05-07T01:08:33;5.60;;;5.20;;
51925;SDS011;37952;51.938;15.480;2023-05-07T01:11:37;5.00;;;4.70;;
51925;SDS011;37952;51.938;15.480;2023-05-07T01:14:41;6.50;;;5.90;;
51925;SDS011;37952;51.938;15.480;2023-05-07T01:20:54;5.80;;;5.40;;
51925;SDS011;37952;51.938;15.480;2023-05-07T01:24:01;5.60;;;5.20;;
51925;SDS011;37952;51.938;15.480;2023-05-07T01:27:04;5.70;;;5.40;;
51925;SDS011;37952;51.938;15.480;2023-05-07T01:33:43;5.00;;;4.70;;
51925;SDS011;37952;51.938;15.480;2023-05-07T01:36:48;6.90;;;5.40;;
51925;SDS011;37952;51.938;15.480;2023-05-07T01:39:51;6.10;;;5.20;;
51925;SDS011;37952;51.938;15.480;2023-05-07T01:42:55;5.30;;;4.80;;
51925;SDS011;37952;51.938;15.480;2023-05-07T01:45:58;4.90;;;4.60;;
51925;SDS011;37952;51.938;15.480;2023-05-07T01:49:02;5.00;;;4.70;;
51925;SDS011;37952;51.938;15.480;2023-05-07T01:52:05;6.10;;;5.20;;
51925;SDS011;37952;51.938;15.480;2023-05-07T01:55:08;5.90;;;4.90;;
51925;SDS011;37952;51.938;15.480;2023-05-07T02:01:20;5.40;;;5.00;;
51925;SDS011;37952;51.938;15.480;2023-05-07T02:04:26;5.00;;;4.70;;
51925;SDS011;37952;51.938;15.480;2023-05-07T02:07:29;6.20;;;4.70;;
51925;SDS011;37952;51.938;15.480;2023-05-07T02:10:32;4.80;;;4.50;;
51925;SDS011;37952;51.938;15.480;2023-05-07T02:13:34;4.60;;;4.30;;
51925;SDS011;37952;51.938;15.480;2023-05-07T02:16:37;5.50;;;5.10;;
51925;SDS011;37952;51.938;15.480;2023-05-07T02:19:40;4.90;;;4.50;;
51925;SDS011;37952;51.938;15.480;2023-05-07T02:26:33;5.20;;;4.90;;
51925;SDS011;37952;51.938;15.480;2023-05-07T02:29:36;5.10;;;4.70;;
51925;SDS011;37952;51.938;15.480;2023-05-07T02:32:39;4.90;;;4.60;;
51925;SDS011;37952;51.938;15.480;2023-05-07T02:35:42;4.80;;;4.50;;
51925;SDS011;37952;51.938;15.480;2023-05-07T02:38:45;5.40;;;4.30;;
51925;SDS011;37952;51.938;15.480;2023-05-07T02:41:47;5.20;;;4.80;;
51925;SDS011;37952;51.938;15.480;2023-05-07T02:44:50;4.40;;;4.10;;
51925;SDS011;37952;51.938;15.480;2023-05-07T02:52:01;4.70;;;4.40;;
51925;SDS011;37952;51.938;15.480;2023-05-07T02:55:04;5.60;;;5.20;;
51925;SDS011;37952;51.938;15.480;2023-05-07T02:58:07;4.50;;;4.10;;
51925;SDS011;37952;51.938;15.480;2023-05-07T03:01:12;4.50;;;4.30;;
51925;SDS011;37952;51.938;15.480;2023-05-07T03:12:15;4.60;;;4.30;;
51925;SDS011;37952;51.938;15.480;2023-05-07T03:15:18;4.20;;;3.90;;
51925;SDS011;37952;51.938;15.480;2023-05-07T03:18:20;6.00;;;5.10;;
51925;SDS011;37952;51.938;15.480;2023-05-07T03:21:23;6.00;;;5.50;;
51925;SDS011;37952;51.938;15.480;2023-05-07T03:28:40;6.50;;;4.00;;
51925;SDS011;37952;51.938;15.480;2023-05-07T03:31:42;5.40;;;5.10;;
51925;SDS011;37952;51.938;15.480;2023-05-07T03:34:45;5.50;;;5.10;;
51925;SDS011;37952;51.938;15.480;2023-05-07T03:37:48;4.70;;;4.40;;
51925;SDS011;37952;51.938;15.480;2023-05-07T03:40:51;5.00;;;4.60;;
51925;SDS011;37952;51.938;15.480;2023-05-07T03:43:53;5.00;;;4.60;;
51925;SDS011;37952;51.938;15.480;2023-05-07T03:46:56;5.80;;;5.40;;
51925;SDS011;37952;51.938;15.480;2023-05-07T03:49:58;5.00;;;4.50;;
51925;SDS011;37952;51.938;15.480;2023-05-07T03:53:01;5.40;;;4.90;;
51925;SDS011;37952;51.938;15.480;2023-05-07T03:56:04;5.60;;;5.20;;
51925;SDS011;37952;51.938;15.480;2023-05-07T03:59:15;6.10;;;5.60;;
51925;SDS011;37952;51.938;15.480;2023-05-07T04:02:18;10.80;;;5.20;;
51925;SDS011;37952;51.938;15.480;2023-05-07T04:08:58;5.30;;;5.00;;
51925;SDS011;37952;51.938;15.480;2023-05-07T04:12:02;6.60;;;6.10;;
51925;SDS011;37952;51.938;15.480;2023-05-07T04:18:19;5.10;;;4.40;;
51925;SDS011;37952;51.938;15.480;2023-05-07T04:21:22;5.30;;;4.90;;
51925;SDS011;37952;51.938;15.480;2023-05-07T04:24:25;5.50;;;5.10;;
51925;SDS011;37952;51.938;15.480;2023-05-07T04:27:27;5.10;;;4.70;;
51925;SDS011;37952;51.938;15.480;2023-05-07T04:30:30;4.70;;;4.10;;
51925;SDS011;37952;51.938;15.480;2023-05-07T04:33:32;5.10;;;4.70;;
51925;SDS011;37952;51.938;15.480;2023-05-07T04:36:37;6.00;;;4.90;;
51925;SDS011;37952;51.938;15.480;2023-05-07T04:39:41;4.30;;;3.90;;
51925;SDS011;37952;51.938;15.480;2023-05-07T04:42:44;4.60;;;4.30;;
51925;SDS011;37952;51.938;15.480;2023-05-07T04:45:47;5.20;;;4.60;;
51925;SDS011;37952;51.938;15.480;2023-05-07T04:48:51;4.80;;;4.40;;
51925;SDS011;37952;51.938;15.480;2023-05-07T04:51:54;5.50;;;4.60;;
51925;SDS011;37952;51.938;15.480;2023-05-07T04:54:58;4.40;;;4.10;;
51925;SDS011;37952;51.938;15.480;2023-05-07T04:58:08;4.90;;;4.30;;
51925;SDS011;37952;51.938;15.480;2023-05-07T05:01:12;5.20;;;4.90;;
51925;SDS011;37952;51.938;15.480;2023-05-07T05:04:15;4.80;;;4.50;;
51925;SDS011;37952;51.938;15.480;2023-05-07T05:07:18;5.50;;;4.20;;
51925;SDS011;37952;51.938;15.480;2023-05-07T05:10:20;7.90;;;4.40;;
51925;SDS011;37952;51.938;15.480;2023-05-07T05:13:26;4.60;;;4.30;;
51925;SDS011;37952;51.938;15.480;2023-05-07T05:16:28;4.30;;;4.10;;
51925;SDS011;37952;51.938;15.480;2023-05-07T05:19:31;4.70;;;4.40;;
51925;SDS011;37952;51.938;15.480;2023-05-07T05:22:33;5.20;;;4.70;;
51925;SDS011;37952;51.938;15.480;2023-05-07T05:25:36;5.60;;;5.10;;
51925;SDS011;37952;51.938;15.480;2023-05-07T05:28:39;4.00;;;3.70;;
51925;SDS011;37952;51.938;15.480;2023-05-07T05:31:42;4.40;;;4.20;;
51925;SDS011;37952;51.938;15.480;2023-05-07T05:38:51;5.40;;;5.10;;
51925;SDS011;37952;51.938;15.480;2023-05-07T05:41:54;4.40;;;4.10;;
51925;SDS011;37952;51.938;15.480;2023-05-07T05:44:56;3.70;;;3.50;;
51925;SDS011;37952;51.938;15.480;2023-05-07T05:47:59;5.20;;;4.80;;
51925;SDS011;37952;51.938;15.480;2023-05-07T05:51:02;6.90;;;4.80;;
51925;SDS011;37952;51.938;15.480;2023-05-07T05:54:05;4.20;;;4.00;;
51925;SDS011;37952;51.938;15.480;2023-05-07T05:57:07;4.20;;;3.90;;
51925;SDS011;37952;51.938;15.480;2023-05-07T06:00:10;4.90;;;4.20;;
51925;SDS011;37952;51.938;15.480;2023-05-07T06:03:14;4.80;;;4.50;;
51925;SDS011;37952;51.938;15.480;2023-05-07T06:06:17;4.40;;;4.00;;
51925;SDS011;37952;51.938;15.480;2023-05-07T06:09:20;4.20;;;4.00;;
51925;SDS011;37952;51.938;15.480;2023-05-07T06:12:22;4.70;;;4.40;;
51925;SDS011;37952;51.938;15.480;2023-05-07T06:18:38;4.70;;;4.30;;
51925;SDS011;37952;51.938;15.480;2023-05-07T06:21:40;4.00;;;3.50;;
51925;SDS011;37952;51.938;15.480;2023-05-07T06:28:29;4.50;;;4.20;;
51925;SDS011;37952;51.938;15.480;2023-05-07T06:31:33;3.80;;;3.30;;
51925;SDS011;37952;51.938;15.480;2023-05-07T06:38:14;3.60;;;3.40;;
51925;SDS011;37952;51.938;15.480;2023-05-07T06:41:17;3.90;;;3.60;;
51925;SDS011;37952;51.938;15.480;2023-05-07T06:44:24;3.20;;;3.00;;
51925;SDS011;37952;51.938;15.480;2023-05-07T06:47:27;3.10;;;2.90;;
51925;SDS011;37952;51.938;15.480;2023-05-07T06:50:30;3.20;;;3.00;;
51925;SDS011;37952;51.938;15.480;2023-05-07T06:53:32;3.60;;;3.40;;
51925;SDS011;37952;51.938;15.480;2023-05-07T06:56:35;3.40;;;3.10;;
51925;SDS011;37952;51.938;15.480;2023-05-07T06:59:37;3.20;;;3.00;;
51925;SDS011;37952;51.938;15.480;2023-05-07T07:02:43;3.10;;;2.90;;
51925;SDS011;37952;51.938;15.480;2023-05-07T07:05:47;3.60;;;3.30;;
51925;SDS011;37952;51.938;15.480;2023-05-07T07:08:49;2.60;;;2.50;;
51925;SDS011;37952;51.938;15.480;2023-05-07T07:11:52;3.10;;;2.90;;
51925;SDS011;37952;51.938;15.480;2023-05-07T07:14:54;3.80;;;3.60;;
51925;SDS011;37952;51.938;15.480;2023-05-07T07:18:05;3.30;;;3.10;;
51925;SDS011;37952;51.938;15.480;2023-05-07T07:21:09;4.10;;;2.80;;
51925;SDS011;37952;51.938;15.480;2023-05-07T07:28:26;3.90;;;2.80;;
51925;SDS011;37952;51.938;15.480;2023-05-07T07:31:28;3.50;;;3.30;;
51925;SDS011;37952;51.938;15.480;2023-05-07T07:34:31;5.70;;;2.70;;
51925;SDS011;37952;51.938;15.480;2023-05-07T07:37:34;2.80;;;2.60;;
51925;SDS011;37952;51.938;15.480;2023-05-07T07:40:36;3.80;;;3.50;;
51925;SDS011;37952;51.938;15.480;2023-05-07T07:43:39;3.20;;;3.00;;
51925;SDS011;37952;51.938;15.480;2023-05-07T07:51:04;2.70;;;2.60;;
51925;SDS011;37952;51.938;15.480;2023-05-07T07:54:07;3.50;;;3.20;;
51925;SDS011;37952;51.938;15.480;2023-05-07T07:57:09;3.20;;;3.00;;
51925;SDS011;37952;51.938;15.480;2023-05-07T08:00:12;2.50;;;2.30;;
51925;SDS011;37952;51.938;15.480;2023-05-07T08:03:15;2.80;;;2.70;;
51925;SDS011;37952;51.938;15.480;2023-05-07T08:06:19;4.90;;;3.50;;
51925;SDS011;37952;51.938;15.480;2023-05-07T08:09:21;2.90;;;2.60;;
51925;SDS011;37952;51.938;15.480;2023-05-07T08:12:24;3.00;;;2.40;;
51925;SDS011;37952;51.938;15.480;2023-05-07T08:15:44;2.40;;;2.30;;
51925;SDS011;37952;51.938;15.480;2023-05-07T08:18:47;3.20;;;3.00;;
51925;SDS011;37952;51.938;15.480;2023-05-07T08:21:50;5.90;;;2.60;;
51925;SDS011;37952;51.938;15.480;2023-05-07T08:24:53;2.60;;;2.40;;
51925;SDS011;37952;51.938;15.480;2023-05-07T08:27:56;2.60;;;2.50;;
51925;SDS011;37952;51.938;15.480;2023-05-07T08:30:58;3.00;;;2.80;;
51925;SDS011;37952;51.938;15.480;2023-05-07T08:34:03;2.70;;;2.60;;
51925;SDS011;37952;51.938;15.480;2023-05-07T08:37:09;3.00;;;2.90;;
51925;SDS011;37952;51.938;15.480;2023-05-07T08:44:18;2.40;;;2.30;;
51925;SDS011;37952;51.938;15.480;2023-05-07T08:47:26;4.50;;;2.70;;
51925;SDS011;37952;51.938;15.480;2023-05-07T08:58:33;2.50;;;2.40;;
51925;SDS011;37952;51.938;15.480;2023-05-07T09:01:36;2.60;;;2.40;;
51925;SDS011;37952;51.938;15.480;2023-05-07T09:08:03;2.10;;;2.00;;
51925;SDS011;37952;51.938;15.480;2023-05-07T09:11:08;2.30;;;2.10;;
51925;SDS011;37952;51.938;15.480;2023-05-07T09:14:12;3.60;;;2.60;;
51925;SDS011;37952;51.938;15.480;2023-05-07T09:17:15;2.30;;;2.20;;
51925;SDS011;37952;51.938;15.480;2023-05-07T09:20:19;1.70;;;1.60;;
51925;SDS011;37952;51.938;15.480;2023-05-07T09:26:38;2.00;;;1.90;;
51925;SDS011;37952;51.938;15.480;2023-05-07T09:29:42;2.20;;;2.00;;
51925;SDS011;37952;51.938;15.480;2023-05-07T09:32:46;2.00;;;1.90;;
51925;SDS011;37952;51.938;15.480;2023-05-07T09:35:50;1.50;;;1.40;;
51925;SDS011;37952;51.938;15.480;2023-05-07T09:38:54;1.60;;;1.50;;
51925;SDS011;37952;51.938;15.480;2023-05-07T09:41:56;1.70;;;1.60;;
51925;SDS011;37952;51.938;15.480;2023-05-07T09:45:00;1.70;;;1.60;;
51925;SDS011;37952;51.938;15.480;2023-05-07T09:48:04;2.10;;;1.80;;
51925;SDS011;37952;51.938;15.480;2023-05-07T09:51:14;1.90;;;1.80;;
51925;SDS011;37952;51.938;15.480;2023-05-07T09:54:41;1.50;;;1.40;;
51925;SDS011;37952;51.938;15.480;2023-05-07T09:57:50;2.00;;;1.90;;
51925;SDS011;37952;51.938;15.480;2023-05-07T10:00:54;2.10;;;2.00;;
51925;SDS011;37952;51.938;15.480;2023-05-07T10:04:01;1.90;;;1.80;;
51925;SDS011;37952;51.938;15.480;2023-05-07T10:07:05;1.90;;;1.80;;
51925;SDS011;37952;51.938;15.480;2023-05-07T10:10:09;1.80;;;1.50;;
51925;SDS011;37952;51.938;15.480;2023-05-07T10:13:13;1.50;;;1.40;;
51925;SDS011;37952;51.938;15.480;2023-05-07T10:16:15;1.40;;;1.30;;
51925;SDS011;37952;51.938;15.480;2023-05-07T10:19:20;1.90;;;1.80;;
51925;SDS011;37952;51.938;15.480;2023-05-07T10:22:24;1.80;;;1.70;;
51925;SDS011;37952;51.938;15.480;2023-05-07T10:29:27;2.50;;;1.30;;
51925;SDS011;37952;51.938;15.480;2023-05-07T10:32:40;1.20;;;1.10;;
51925;SDS011;37952;51.938;15.480;2023-05-07T10:39:31;1.20;;;1.20;;
51925;SDS011;37952;51.938;15.480;2023-05-07T10:42:34;2.90;;;1.30;;
51925;SDS011;37952;51.938;15.480;2023-05-07T10:45:37;1.10;;;1.10;;
51925;SDS011;37952;51.938;15.480;2023-05-07T10:52:18;1.20;;;1.20;;
51925;SDS011;37952;51.938;15.480;2023-05-07T10:55:23;1.00;;;1.00;;
51925;SDS011;37952;51.938;15.480;2023-05-07T10:58:28;1.20;;;1.20;;
51925;SDS011;37952;51.938;15.480;2023-05-07T11:01:50;1.80;;;1.40;;
51925;SDS011;37952;51.938;15.480;2023-05-07T11:08:55;1.20;;;1.20;;
51925;SDS011;37952;51.938;15.480;2023-05-07T11:15:59;1.50;;;1.40;;
51925;SDS011;37952;51.938;15.480;2023-05-07T11:19:02;1.20;;;1.20;;
51925;SDS011;37952;51.938;15.480;2023-05-07T11:22:05;1.40;;;1.30;;
51925;SDS011;37952;51.938;15.480;2023-05-07T11:25:11;1.30;;;1.20;;
51925;SDS011;37952;51.938;15.480;2023-05-07T11:28:20;1.90;;;1.40;;
51925;SDS011;37952;51.938;15.480;2023-05-07T11:31:24;5.20;;;1.60;;
51925;SDS011;37952;51.938;15.480;2023-05-07T11:34:28;1.30;;;1.20;;
51925;SDS011;37952;51.938;15.480;2023-05-07T11:37:31;1.60;;;1.50;;
51925;SDS011;37952;51.938;15.480;2023-05-07T11:40:33;1.60;;;1.50;;
51925;SDS011;37952;51.938;15.480;2023-05-07T11:43:36;1.20;;;1.20;;
51925;SDS011;37952;51.938;15.480;2023-05-07T11:46:42;1.40;;;1.40;;
51925;SDS011;37952;51.938;15.480;2023-05-07T11:49:50;1.50;;;1.40;;
51925;SDS011;37952;51.938;15.480;2023-05-07T11:52:54;1.20;;;1.10;;
51925;SDS011;37952;51.938;15.480;2023-05-07T11:55:57;1.30;;;1.30;;
51925;SDS011;37952;51.938;15.480;2023-05-07T11:59:00;1.30;;;1.20;;
51925;SDS011;37952;51.938;15.480;2023-05-07T12:02:02;1.30;;;1.20;;
51925;SDS011;37952;51.938;15.480;2023-05-07T12:08:16;1.60;;;1.50;;
51925;SDS011;37952;51.938;15.480;2023-05-07T12:11:24;1.40;;;1.30;;
51925;SDS011;37952;51.938;15.480;2023-05-07T12:17:51;1.30;;;1.20;;
51925;SDS011;37952;51.938;15.480;2023-05-07T12:20:55;1.30;;;1.20;;
51925;SDS011;37952;51.938;15.480;2023-05-07T12:23:57;1.20;;;1.10;;
51925;SDS011;37952;51.938;15.480;2023-05-07T12:30:43;1.30;;;1.30;;
51925;SDS011;37952;51.938;15.480;2023-05-07T12:33:47;0.90;;;0.90;;
51925;SDS011;37952;51.938;15.480;2023-05-07T12:40:08;1.30;;;1.20;;
51925;SDS011;37952;51.938;15.480;2023-05-07T12:43:24;0.90;;;0.90;;
51925;SDS011;37952;51.938;15.480;2023-05-07T12:46:28;1.30;;;1.20;;
51925;SDS011;37952;51.938;15.480;2023-05-07T12:49:31;1.20;;;1.00;;
51925;SDS011;37952;51.938;15.480;2023-05-07T12:52:40;1.30;;;1.20;;
51925;SDS011;37952;51.938;15.480;2023-05-07T12:55:46;1.00;;;1.00;;
51925;SDS011;37952;51.938;15.480;2023-05-07T12:58:56;2.80;;;1.40;;
51925;SDS011;37952;51.938;15.480;2023-05-07T13:02:00;0.90;;;0.80;;
51925;SDS011;37952;51.938;15.480;2023-05-07T13:05:03;1.10;;;1.10;;
51925;SDS011;37952;51.938;15.480;2023-05-07T13:08:06;0.90;;;0.90;;
51925;SDS011;37952;51.938;15.480;2023-05-07T13:11:12;3.60;;;1.20;;
51925;SDS011;37952;51.938;15.480;2023-05-07T13:14:15;1.00;;;0.90;;
51925;SDS011;37952;51.938;15.480;2023-05-07T13:17:18;1.10;;;1.10;;
51925;SDS011;37952;51.938;15.480;2023-05-07T13:20:21;2.00;;;0.80;;
51925;SDS011;37952;51.938;15.480;2023-05-07T13:23:24;2.90;;;0.90;;
51925;SDS011;37952;51.938;15.480;2023-05-07T13:26:27;0.90;;;0.90;;
51925;SDS011;37952;51.938;15.480;2023-05-07T13:29:29;0.80;;;0.80;;
51925;SDS011;37952;51.938;15.480;2023-05-07T13:32:32;1.40;;;1.00;;
51925;SDS011;37952;51.938;15.480;2023-05-07T13:35:35;1.00;;;1.00;;
51925;SDS011;37952;51.938;15.480;2023-05-07T13:38:39;1.60;;;1.00;;
51925;SDS011;37952;51.938;15.480;2023-05-07T13:41:42;0.70;;;0.70;;
51925;SDS011;37952;51.938;15.480;2023-05-07T13:44:45;5.30;;;1.00;;
51925;SDS011;37952;51.938;15.480;2023-05-07T13:47:47;1.00;;;1.00;;
51925;SDS011;37952;51.938;15.480;2023-05-07T13:50:51;1.10;;;1.10;;
51925;SDS011;37952;51.938;15.480;2023-05-07T13:53:54;1.40;;;1.20;;
51925;SDS011;37952;51.938;15.480;2023-05-07T13:56:57;0.90;;;0.90;;
51925;SDS011;37952;51.938;15.480;2023-05-07T13:59:59;0.80;;;0.80;;
51925;SDS011;37952;51.938;15.480;2023-05-07T14:03:02;1.50;;;0.80;;
51925;SDS011;37952;51.938;15.480;2023-05-07T14:06:06;0.90;;;0.90;;
51925;SDS011;37952;51.938;15.480;2023-05-07T14:09:09;0.80;;;0.80;;
51925;SDS011;37952;51.938;15.480;2023-05-07T14:12:14;2.30;;;1.00;;
51925;SDS011;37952;51.938;15.480;2023-05-07T14:15:17;0.90;;;0.90;;
51925;SDS011;37952;51.938;15.480;2023-05-07T14:18:19;0.90;;;0.90;;
51925;SDS011;37952;51.938;15.480;2023-05-07T14:21:22;0.90;;;0.90;;
51925;SDS011;37952;51.938;15.480;2023-05-07T14:24:25;1.10;;;1.00;;
51925;SDS011;37952;51.938;15.480;2023-05-07T14:27:39;1.50;;;1.00;;
51925;SDS011;37952;51.938;15.480;2023-05-07T14:30:42;5.80;;;1.20;;
51925;SDS011;37952;51.938;15.480;2023-05-07T14:33:45;0.90;;;0.90;;
51925;SDS011;37952;51.938;15.480;2023-05-07T14:36:47;1.00;;;1.00;;
51925;SDS011;37952;51.938;15.480;2023-05-07T14:39:50;1.00;;;1.00;;
51925;SDS011;37952;51.938;15.480;2023-05-07T14:42:52;1.20;;;1.10;;
51925;SDS011;37952;51.938;15.480;2023-05-07T14:45:55;0.90;;;0.90;;
51925;SDS011;37952;51.938;15.480;2023-05-07T14:48:58;1.10;;;1.00;;
51925;SDS011;37952;51.938;15.480;2023-05-07T14:52:00;1.10;;;1.10;;
51925;SDS011;37952;51.938;15.480;2023-05-07T14:55:03;2.50;;;1.20;;
51925;SDS011;37952;51.938;15.480;2023-05-07T14:58:07;1.30;;;1.20;;
51925;SDS011;37952;51.938;15.480;2023-05-07T15:01:09;1.20;;;1.10;;
51925;SDS011;37952;51.938;15.480;2023-05-07T15:04:15;1.40;;;1.20;;
51925;SDS011;37952;51.938;15.480;2023-05-07T15:07:17;1.40;;;1.30;;
51925;SDS011;37952;51.938;15.480;2023-05-07T15:10:24;1.20;;;1.20;;
51925;SDS011;37952;51.938;15.480;2023-05-07T15:13:27;1.20;;;1.10;;
51925;SDS011;37952;51.938;15.480;2023-05-07T15:16:30;1.90;;;1.30;;
51925;SDS011;37952;51.938;15.480;2023-05-07T15:19:34;1.60;;;1.50;;
51925;SDS011;37952;51.938;15.480;2023-05-07T15:22:36;1.40;;;1.30;;
51925;SDS011;37952;51.938;15.480;2023-05-07T15:25:39;2.30;;;1.20;;
51925;SDS011;37952;51.938;15.480;2023-05-07T15:28:42;1.30;;;1.20;;
51925;SDS011;37952;51.938;15.480;2023-05-07T15:31:44;1.70;;;1.60;;
51925;SDS011;37952;51.938;15.480;2023-05-07T15:34:48;1.70;;;1.60;;
51925;SDS011;37952;51.938;15.480;2023-05-07T15:37:51;1.70;;;1.60;;
51925;SDS011;37952;51.938;15.480;2023-05-07T15:40:54;1.50;;;1.40;;
51925;SDS011;37952;51.938;15.480;2023-05-07T15:43:58;1.60;;;1.50;;
51925;SDS011;37952;51.938;15.480;2023-05-07T15:47:01;1.70;;;1.60;;
51925;SDS011;37952;51.938;15.480;2023-05-07T15:50:03;1.70;;;1.60;;
51925;SDS011;37952;51.938;15.480;2023-05-07T15:53:07;1.70;;;1.60;;
51925;SDS011;37952;51.938;15.480;2023-05-07T15:56:10;1.40;;;1.40;;
51925;SDS011;37952;51.938;15.480;2023-05-07T15:59:13;1.70;;;1.50;;
51925;SDS011;37952;51.938;15.480;2023-05-07T16:02:17;2.10;;;1.70;;
51925;SDS011;37952;51.938;15.480;2023-05-07T16:05:20;1.70;;;1.60;;
51925;SDS011;37952;51.938;15.480;2023-05-07T16:08:23;1.50;;;1.50;;
51925;SDS011;37952;51.938;15.480;2023-05-07T16:11:26;1.40;;;1.30;;
51925;SDS011;37952;51.938;15.480;2023-05-07T16:14:31;6.60;;;1.70;;
51925;SDS011;37952;51.938;15.480;2023-05-07T16:17:34;1.80;;;1.70;;
51925;SDS011;37952;51.938;15.480;2023-05-07T16:20:37;2.60;;;1.70;;
51925;SDS011;37952;51.938;15.480;2023-05-07T16:23:40;1.90;;;1.80;;
51925;SDS011;37952;51.938;15.480;2023-05-07T16:26:43;2.00;;;1.90;;
51925;SDS011;37952;51.938;15.480;2023-05-07T16:29:46;1.90;;;1.80;;
51925;SDS011;37952;51.938;15.480;2023-05-07T16:32:48;1.90;;;1.80;;
51925;SDS011;37952;51.938;15.480;2023-05-07T16:35:51;1.70;;;1.60;;
51925;SDS011;37952;51.938;15.480;2023-05-07T16:38:54;1.90;;;1.80;;
51925;SDS011;37952;51.938;15.480;2023-05-07T16:41:57;1.70;;;1.60;;
51925;SDS011;37952;51.938;15.480;2023-05-07T16:45:00;2.30;;;2.20;;
51925;SDS011;37952;51.938;15.480;2023-05-07T16:48:05;2.40;;;1.70;;
51925;SDS011;37952;51.938;15.480;2023-05-07T16:51:09;2.00;;;1.70;;
51925;SDS011;37952;51.938;15.480;2023-05-07T16:54:12;2.10;;;2.00;;
51925;SDS011;37952;51.938;15.480;2023-05-07T16:57:15;2.90;;;1.70;;
51925;SDS011;37952;51.938;15.480;2023-05-07T17:00:17;2.40;;;1.70;;
51925;SDS011;37952;51.938;15.480;2023-05-07T17:03:20;2.60;;;1.90;;
51925;SDS011;37952;51.938;15.480;2023-05-07T17:06:23;1.30;;;1.30;;
51925;SDS011;37952;51.938;15.480;2023-05-07T17:09:27;1.60;;;1.50;;
51925;SDS011;37952;51.938;15.480;2023-05-07T17:12:29;2.30;;;2.20;;
51925;SDS011;37952;51.938;15.480;2023-05-07T17:15:33;1.80;;;1.60;;
51925;SDS011;37952;51.938;15.480;2023-05-07T17:18:35;1.70;;;1.60;;
51925;SDS011;37952;51.938;15.480;2023-05-07T17:21:38;2.50;;;1.90;;
51925;SDS011;37952;51.938;15.480;2023-05-07T17:24:41;1.90;;;1.80;;
51925;SDS011;37952;51.938;15.480;2023-05-07T17:27:43;2.00;;;1.90;;
51925;SDS011;37952;51.938;15.480;2023-05-07T17:30:46;2.00;;;1.90;;
51925;SDS011;37952;51.938;15.480;2023-05-07T17:33:50;2.50;;;1.60;;
51925;SDS011;37952;51.938;15.480;2023-05-07T17:36:52;1.90;;;1.80;;
51925;SDS011;37952;51.938;15.480;2023-05-07T17:39:55;2.30;;;2.20;;
51925;SDS011;37952;51.938;15.480;2023-05-07T17:42:58;2.10;;;2.00;;
51925;SDS011;37952;51.938;15.480;2023-05-07T17:46:01;2.00;;;1.90;;
51925;SDS011;37952;51.938;15.480;2023-05-07T17:49:04;2.40;;;2.30;;
51925;SDS011;37952;51.938;15.480;2023-05-07T17:52:07;2.00;;;1.90;;
51925;SDS011;37952;51.938;15.480;2023-05-07T17:55:10;2.10;;;2.00;;
51925;SDS011;37952;51.938;15.480;2023-05-07T17:58:13;1.80;;;1.70;;
51925;SDS011;37952;51.938;15.480;2023-05-07T18:01:16;2.10;;;2.00;;
51925;SDS011;37952;51.938;15.480;2023-05-07T18:04:23;2.60;;;2.40;;
51925;SDS011;37952;51.938;15.480;2023-05-07T18:07:28;2.40;;;2.30;;
51925;SDS011;37952;51.938;15.480;2023-05-07T18:10:30;2.40;;;2.30;;
51925;SDS011;37952;51.938;15.480;2023-05-07T18:13:33;2.60;;;2.50;;
51925;SDS011;37952;51.938;15.480;2023-05-07T18:16:36;2.60;;;2.50;;
51925;SDS011;37952;51.938;15.480;2023-05-07T18:19:39;2.60;;;2.50;;
51925;SDS011;37952;51.938;15.480;2023-05-07T18:22:41;2.90;;;2.70;;
51925;SDS011;37952;51.938;15.480;2023-05-07T18:25:45;3.10;;;2.50;;
51925;SDS011;37952;51.938;15.480;2023-05-07T18:28:48;2.80;;;2.70;;
51925;SDS011;37952;51.938;15.480;2023-05-07T18:31:50;2.70;;;2.50;;
51925;SDS011;37952;51.938;15.480;2023-05-07T18:34:53;3.60;;;3.40;;
51925;SDS011;37952;51.938;15.480;2023-05-07T18:37:56;4.70;;;3.30;;
51925;SDS011;37952;51.938;15.480;2023-05-07T18:41:02;3.90;;;3.60;;
51925;SDS011;37952;51.938;15.480;2023-05-07T18:44:05;3.50;;;3.30;;
51925;SDS011;37952;51.938;15.480;2023-05-07T18:47:08;3.70;;;3.50;;
51925;SDS011;37952;51.938;15.480;2023-05-07T18:50:11;3.80;;;3.60;;
51925;SDS011;37952;51.938;15.480;2023-05-07T18:53:15;3.40;;;3.20;;
51925;SDS011;37952;51.938;15.480;2023-05-07T18:56:17;3.60;;;3.40;;
51925;SDS011;37952;51.938;15.480;2023-05-07T18:59:20;3.30;;;3.10;;
51925;SDS011;37952;51.938;15.480;2023-05-07T19:02:23;3.50;;;3.30;;
51925;SDS011;37952;51.938;15.480;2023-05-07T19:05:26;3.60;;;3.40;;
51925;SDS011;37952;51.938;15.480;2023-05-07T19:08:28;6.60;;;3.70;;
51925;SDS011;37952;51.938;15.480;2023-05-07T19:11:31;3.10;;;3.00;;
51925;SDS011;37952;51.938;15.480;2023-05-07T19:14:34;3.30;;;3.00;;
51925;SDS011;37952;51.938;15.480;2023-05-07T19:17:36;4.80;;;2.90;;
51925;SDS011;37952;51.938;15.480;2023-05-07T19:20:39;2.80;;;2.70;;
51925;SDS011;37952;51.938;15.480;2023-05-07T19:23:42;3.00;;;2.80;;
51925;SDS011;37952;51.938;15.480;2023-05-07T19:26:45;2.80;;;2.60;;
51925;SDS011;37952;51.938;15.480;2023-05-07T19:29:47;3.50;;;3.30;;
51925;SDS011;37952;51.938;15.480;2023-05-07T19:32:50;6.20;;;3.10;;
51925;SDS011;37952;51.938;15.480;2023-05-07T19:35:52;3.50;;;3.30;;
51925;SDS011;37952;51.938;15.480;2023-05-07T19:38:59;3.60;;;3.40;;
51925;SDS011;37952;51.938;15.480;2023-05-07T19:42:02;3.70;;;3.50;;
51925;SDS011;37952;51.938;15.480;2023-05-07T19:45:05;3.60;;;3.30;;
51925;SDS011;37952;51.938;15.480;2023-05-07T19:48:08;4.20;;;3.70;;
51925;SDS011;37952;51.938;15.480;2023-05-07T19:51:11;3.20;;;3.00;;
51925;SDS011;37952;51.938;15.480;2023-05-07T19:54:14;3.00;;;2.80;;
51925;SDS011;37952;51.938;15.480;2023-05-07T19:57:17;3.50;;;3.30;;
51925;SDS011;37952;51.938;15.480;2023-05-07T20:00:19;3.70;;;3.20;;